< < Back
Terminal Aerodrome Forecast


Current Version              Previous Versions:   1  2  3  4  5  6  7  8  9  

Terminal Aerodrome Forecast

177
FTUS44 KMOB 282300
TAFPNS
TAF
KPNS 282321Z 2900/2924 29008KT P6SM VCTS FEW040CB FEW090
      TEMPO 2900/2901 3SM TSRA BKN015CB
     FM290400 31005KT P6SM SCT045 SCT100
     FM290900 36006KT P6SM SKC=



Latest METAR

108
SAUS70 KWBC 291200 RRB
MTRPNS
METAR KPNS 291153Z 35004KT 10SM FEW050 22/19 A3000 RMK AO2 SLP159 70047
T02220189 10244 20222 53016


USA.gov is the U.S. government's official web portal to all federal, state and local government web resources and services.